Latest Weather Observations for Kempsey Airport

IDN60801

Issued at 9:35 pm EST Wednesday 23 April 2014 (issued every 30 minutes, with the page automatically refreshed every 10 minutes)

About weather observations | Map of weather stations | Latest weather observations for NSW | Other Formats
Station Details ID: 059007 Name: KEMPSEY AIRPORT AWS Lat: -31.07 Lon: 152.77 Height: 13.0 m
Data from the previous 72 hours. | See also: Recent months for locations in New South Wales
Date/Time
EST
Temp
°C
App
Temp
°C
Dew
Point
Rel
Hum
%
Delta-T
°C
Wind Press
QNH
hPa
Press
MSL
hPa
Rain
since 9 am
mm
Dir
 
Spd
km/h
Gust
km/h
Spd
kts
Gust
kts
23/09:30pm 15.9 15.0 14.8 93 0.6 WSW 13 15 7 8 1016.1 - 0.0
23/09:00pm 16.0 17.4 14.4 90 0.9 WNW 0 0 0 0 1016.1 1016.1 0.0
23/08:30pm 16.8 17.8 15.3 91 0.9 SSW 4 7 2 4 1016.3 - 0.0
23/08:00pm 17.3 17.6 16.0 92 0.8 W 9 9 5 5 1016.1 1016.1 0.0
23/07:30pm 16.9 18.1 14.9 88 1.2 WSW 2 11 1 6 1015.7 - 0.0
23/07:00pm 18.3 20.5 16.6 90 1.0 CALM 0 0 0 0 1015.6 1015.5 0.0
23/06:30pm 18.9 21.3 17.0 89 1.1 CALM 0 0 0 0 1015.5 - 0.0
23/06:00pm 19.4 19.9 17.5 89 1.2 WSW 11 13 6 7 1015.2 1015.1 0.0
23/05:30pm 20.7 21.2 15.0 70 3.4 SSE 6 7 3 4 1015.0 - 0.0
23/05:00pm 23.4 23.8 14.7 58 5.2 ESE 6 9 3 5 1014.8 1014.7 0.0
23/04:30pm 25.0 24.3 14.2 51 6.4 NE 11 15 6 8 1014.4 - 0.0
23/04:00pm 24.8 24.5 15.4 56 5.7 ENE 11 19 6 10 1014.5 1014.4 0.0
23/03:30pm 26.0 24.1 15.1 51 6.6 NE 19 24 10 13 1014.3 - 0.0
23/03:00pm 26.9 23.0 12.2 40 8.5 ENE 24 30 13 16 1014.1 1014.0 0.0
23/02:30pm 27.8 25.3 14.1 43 8.2 NE 20 28 11 15 1013.9 - 0.0
23/02:00pm 28.3 26.2 15.2 44 8.0 E 20 28 11 15 1013.9 1013.8 0.0
23/01:30pm 29.1 26.3 12.5 36 9.7 NE 19 22 10 12 1014.1 - 0.0
23/01:00pm 29.6 27.6 11.6 33 10.4 NNW 13 26 7 14 1014.5 1014.4 0.0
23/12:30pm 29.4 26.4 10.5 31 10.7 NNW 17 28 9 15 1015.0 - 0.0
23/12:00pm 28.8 26.1 11.8 35 9.8 NNW 17 26 9 14 1015.6 1015.5 0.0
23/11:30am 28.0 26.4 12.8 39 8.9 NW 13 20 7 11 1016.3 - 0.0
23/11:00am 27.6 26.5 13.2 41 8.5 NW 11 17 6 9 1016.9 1016.9 0.0
23/10:30am 26.8 26.0 13.9 45 7.7 NNW 11 19 6 10 1017.3 - 0.0
23/10:00am 23.9 24.9 16.4 63 4.6 SSE 6 9 3 5 1017.7 1017.7 0.0
23/09:30am 21.4 21.6 15.7 70 3.4 SSE 9 11 5 6 1018.0 - 0.0
23/09:00am 20.0 21.2 16.0 78 2.4 SE 4 9 2 5 1018.1 1018.1 0.0
23/08:30am 18.8 19.4 15.3 80 2.1 W 6 11 3 6 1018.2 - 0.0
23/08:00am 17.2 17.7 15.0 87 1.3 WSW 6 7 3 4 1018.4 1018.4 0.0
23/07:30am 15.9 15.9 14.1 89 1.0 NNW 7 9 4 5 1018.3 - 0.0
23/07:00am 15.2 14.7 13.9 92 0.7 W 9 11 5 6 1018.1 1018.1 0.0
23/06:30am 14.9 15.0 13.9 94 0.6 W 6 9 3 5 1017.7 - 0.0
23/06:00am 14.4 13.8 13.4 94 0.6 WSW 9 11 5 6 1017.5 1017.5 0.0
23/05:30am 13.9 14.8 12.8 93 0.6 CALM 0 9 0 5 1017.3 - 0.0
23/05:00am 13.8 14.3 12.7 93 0.6 NNW 2 7 1 4 1016.9 1016.9 0.0
23/04:30am 14.3 14.5 13.2 93 0.6 WNW 4 7 2 4 1016.8 - 0.0
23/04:00am 14.4 14.1 13.3 93 0.6 SSW 7 11 4 6 1016.6 1016.6 0.0
23/03:30am 14.1 13.9 13.0 93 0.6 W 6 9 3 5 1016.5 - 0.0
23/03:00am 14.2 13.1 13.2 94 0.6 WSW 11 13 6 7 1016.4 1016.4 0.0
23/02:30am 13.0 12.2 11.7 92 0.7 WNW 7 9 4 5 1016.3 - 0.0
23/02:00am 14.4 14.1 13.3 93 0.6 W 7 9 4 5 1016.5 1016.5 0.0
23/01:30am 14.2 13.9 13.2 94 0.6 WNW 7 11 4 6 1016.6 - 0.0
23/01:00am 13.9 14.5 13.0 94 0.5 W 2 7 1 4 1016.9 1016.9 0.0
23/12:30am 13.6 14.4 12.5 93 0.6 CALM 0 0 0 0 1017.0 - 0.0
23/12:00am 13.9 14.8 12.8 93 0.6 CALM 0 0 0 0 1016.9 1016.9 0.0
 
Date/Time
EST
Temp
°C
App
Temp
°C
Dew
Point
Rel
Hum
%
Delta-T
°C
Wind Press
QNH
hPa
Press
MSL
hPa
Rain
since 9 am
mm
Dir
 
Spd
km/h
Gust
km/h
Spd
kts
Gust
kts
22/11:30pm 14.9 16.1 13.8 93 0.6 CALM 0 0 0 0 1017.0 - 0.0
22/11:00pm 15.2 16.5 14.1 93 0.6 CALM 0 0 0 0 1017.2 1017.2 0.0
22/10:30pm 15.2 16.4 13.9 92 0.7 CALM 0 0 0 0 1017.3 - 0.0
22/10:00pm 16.1 17.7 15.0 93 0.6 CALM 0 0 0 0 1017.3 1017.3 0.0
22/09:30pm 15.9 17.3 14.4 91 0.9 CALM 0 0 0 0 1017.2 - 0.0
22/09:00pm 17.1 19.1 16.0 93 0.6 CALM 0 0 0 0 1017.2 1017.2 0.0
22/08:30pm 17.7 18.5 16.4 92 0.8 W 7 7 4 4 1017.1 - 0.0
22/08:00pm 17.5 19.4 15.8 90 1.0 CALM 0 0 0 0 1017.0 1017.0 0.0
22/07:30pm 18.3 20.4 16.3 88 1.2 CALM 0 0 0 0 1016.9 - 0.0
22/07:00pm 19.0 21.2 16.4 85 1.6 CALM 0 0 0 0 1016.7 1016.7 0.0
22/06:30pm 19.9 22.3 16.9 83 1.8 CALM 0 0 0 0 1016.6 - 0.0
22/06:00pm 21.0 21.8 17.2 79 2.3 E 9 11 5 6 1016.1 1016.1 0.0
22/05:30pm 22.5 23.3 17.4 73 3.1 E 9 13 5 7 1015.8 - 0.0
22/05:00pm 24.0 24.4 17.3 66 4.2 ENE 11 15 6 8 1015.7 1015.6 0.0
22/04:30pm 25.9 25.8 17.0 58 5.5 NE 13 17 7 9 1015.5 - 0.0
22/04:00pm 26.7 26.1 16.6 54 6.2 ENE 15 20 8 11 1015.4 1015.3 0.0
22/03:30pm 27.0 26.2 17.2 55 6.1 NE 17 20 9 11 1015.5 - 0.0
22/03:00pm 27.1 26.4 17.3 55 6.1 NE 17 22 9 12 1015.6 1015.5 0.0
22/02:30pm 27.1 25.7 17.0 54 6.3 NE 20 26 11 14 1015.6 - 0.0
22/02:00pm 27.8 27.3 15.8 48 7.4 NE 13 20 7 11 1015.7 1015.6 0.0
22/01:30pm 28.0 27.2 15.0 45 7.9 NNE 13 20 7 11 1016.0 - 0.0
22/01:00pm 27.4 26.4 13.4 42 8.3 NNE 11 19 6 10 1016.6 1016.6 0.0
22/12:30pm 27.9 26.5 13.4 40 8.6 NNE 13 20 7 11 1017.0 - 0.0
22/12:00pm 27.6 27.0 13.5 41 8.3 NW 9 17 5 9 1017.4 1017.4 0.0
22/11:30am 27.2 25.6 12.8 41 8.4 NW 13 19 7 10 1017.9 - 0.0
22/11:00am 26.4 25.2 13.9 46 7.4 NW 13 19 7 10 1018.7 1018.7 0.0
22/10:30am 24.7 23.0 13.6 50 6.5 NW 15 26 8 14 1019.1 - 0.0
22/10:00am 24.1 24.0 15.9 60 5.0 NNW 11 15 6 8 1019.4 1019.4 0.0
22/09:30am 22.9 22.8 16.0 65 4.2 NNW 11 19 6 10 1019.7 - 0.0
22/09:00am 21.8 21.1 15.4 67 3.8 NW 13 15 7 8 1020.2 1020.2 0.0
22/08:30am 19.2 17.8 14.5 74 2.7 WNW 15 19 8 10 1020.2 - 0.0
22/08:00am 18.6 17.4 14.1 75 2.6 NW 13 17 7 9 1020.2 1020.2 0.0
22/07:30am 17.4 16.4 14.5 83 1.7 NW 13 19 7 10 1020.2 - 0.0
22/07:00am 16.5 15.7 14.0 85 1.4 WNW 11 13 6 7 1020.0 1020.0 0.0
22/06:30am 15.5 15.8 13.5 88 1.1 W 4 7 2 4 1019.7 - 0.0
22/06:00am 15.6 15.6 13.6 88 1.1 W 6 15 3 8 1019.8 1019.8 0.0
22/05:30am 14.5 14.0 12.5 88 1.1 W 7 9 4 5 1019.6 - 0.0
22/05:00am 15.4 16.3 12.9 85 1.4 CALM 0 0 0 0 1019.4 1019.4 0.0
22/04:30am 15.9 16.6 13.4 85 1.4 S 2 7 1 4 1019.4 - 0.0
22/04:00am 16.2 15.7 13.9 86 1.3 WNW 9 13 5 7 1019.3 1019.3 0.0
22/03:30am 15.9 15.9 13.7 87 1.2 WNW 6 9 3 5 1019.3 - 0.0
22/03:00am 15.6 16.6 13.3 86 1.3 CALM 0 0 0 0 1019.2 1019.2 0.0
22/02:30am 15.4 16.4 13.1 86 1.3 CALM 0 0 0 0 1019.6 - 0.0
22/02:00am 15.4 16.2 12.7 84 1.5 CALM 0 0 0 0 1019.7 1019.7 0.0
22/01:30am 15.6 16.6 13.1 85 1.4 CALM 0 0 0 0 1020.0 - 0.0
22/01:00am 15.6 16.6 13.3 86 1.3 CALM 0 0 0 0 1020.2 1020.2 0.0
22/12:30am 15.2 16.3 13.6 90 0.9 CALM 0 0 0 0 1020.3 - 0.0
22/12:00am 14.0 14.5 11.5 85 1.3 CALM 0 0 0 0 1020.3 1020.3 0.0
 
Date/Time
EST
Temp
°C
App
Temp
°C
Dew
Point
Rel
Hum
%
Delta-T
°C
Wind Press
QNH
hPa
Press
MSL
hPa
Rain
since 9 am
mm
Dir
 
Spd
km/h
Gust
km/h
Spd
kts
Gust
kts
21/11:30pm 15.1 14.6 12.2 83 1.6 W 6 7 3 4 1020.2 - 0.0
21/11:00pm 15.6 15.2 12.4 81 1.7 WSW 6 7 3 4 1020.3 1020.3 0.0
21/10:30pm 16.7 16.4 12.8 78 2.2 WSW 6 7 3 4 1020.6 - 0.0
21/10:00pm 17.1 17.6 12.8 76 2.4 W 2 6 1 3 1020.6 1020.6 0.0
21/09:30pm 17.2 17.4 12.9 76 2.4 W 4 9 2 5 1020.9 - 0.0
21/09:00pm 16.8 16.0 12.9 78 2.2 W 9 9 5 5 1020.8 1020.8 0.0
21/08:30pm 16.4 15.9 12.8 79 2.0 W 7 9 4 5 1020.7 - 0.0
21/08:00pm 16.1 15.6 12.8 81 1.8 WSW 7 9 4 5 1020.5 1020.5 0.0
21/07:30pm 15.3 14.7 12.2 82 1.7 W 7 9 4 5 1020.4 - 0.0
21/07:00pm 14.8 13.7 11.8 82 1.6 WSW 9 11 5 6 1020.0 1020.0 0.0
21/06:30pm 16.1 16.6 11.7 75 2.4 CALM 0 7 0 4 1019.7 - 0.0
21/06:00pm 17.6 18.2 11.8 69 3.2 CALM 0 0 0 0 1019.4 1019.4 0.0
21/05:30pm 19.0 19.5 11.6 62 4.1 CALM 0 0 0 0 1019.0 - 0.0
21/05:00pm 20.5 19.7 11.7 57 4.9 ESE 7 11 4 6 1018.7 1018.7 0.0
21/04:30pm 22.0 19.9 11.1 50 6.0 SE 13 17 7 9 1018.3 - 0.0
21/04:00pm 22.9 20.8 11.3 48 6.5 SE 13 17 7 9 1018.0 1018.0 0.0
21/03:30pm 23.4 21.4 11.5 47 6.7 SE 13 20 7 11 1017.7 - 0.0
21/03:00pm 24.3 22.6 12.6 48 6.7 ESE 13 20 7 11 1017.6 1017.6 0.0
21/02:30pm 24.2 21.8 11.5 45 7.2 E 15 20 8 11 1017.4 - 0.0
21/02:00pm 24.1 21.5 12.1 47 6.8 E 17 28 9 15 1017.4 1017.4 0.0
21/01:30pm 24.9 22.3 13.1 48 6.9 E 19 24 10 13 1017.4 - 0.0
21/01:00pm 25.2 22.3 11.0 41 8.0 E 17 22 9 12 1017.6 1017.6 0.0
21/12:30pm 26.6 24.6 7.1 29 10.3 ENE 7 13 4 7 1017.9 - 0.0
21/12:00pm 26.2 23.5 7.3 30 10.0 NNE 11 17 6 9 1018.4 1018.4 0.0
21/11:30am 25.7 24.1 6.3 29 10.1 NW 4 11 2 6 1019.0 - 0.0
21/11:00am 24.8 22.9 7.4 33 9.1 NW 7 11 4 6 1019.4 1019.4 0.0
21/10:30am 24.2 22.1 9.8 40 7.9 NNW 11 15 6 8 1019.8 - 0.0
21/10:00am 22.7 20.0 10.2 45 6.8 NW 15 19 8 10 1019.9 1019.9 0.0
21/09:30am 21.3 18.6 11.6 54 5.4 NW 17 20 9 11 1020.1 - 0.0
21/09:00am 19.9 18.0 13.1 65 3.8 WNW 15 19 8 10 1020.3 1020.3 0.2
21/08:30am 17.6 15.4 13.3 76 2.4 WNW 17 22 9 12 1020.3 - 0.2
21/08:00am 15.8 14.2 12.7 82 1.7 WNW 13 19 7 10 1020.1 1020.1 0.2
21/07:30am 14.7 13.9 11.8 83 1.6 W 7 9 4 5 1019.7 - 0.2
21/07:00am 13.6 10.4 11.8 89 1.0 WNW 20 26 11 14 1019.4 1019.4 0.2
21/06:30am 12.3 11.4 11.2 93 0.6 WSW 7 11 4 6 1019.0 - 0.0
21/06:00am 12.4 11.5 11.3 93 0.6 W 7 11 4 6 1018.5 1018.5 0.0
21/05:30am 12.9 11.8 12.0 94 0.5 W 9 15 5 8 1018.3 - 0.0
21/05:00am 12.2 11.3 11.3 94 0.5 WSW 7 9 4 5 1017.9 1017.9 0.0
21/04:30am 12.1 12.5 11.2 94 0.5 CALM 0 0 0 0 1017.7 - 0.0
21/04:00am 12.1 12.5 11.2 94 0.5 CALM 0 0 0 0 1017.4 1017.4 0.0
21/03:30am 12.4 12.5 11.5 94 0.5 W 2 6 1 3 1017.4 - 0.0
21/03:00am 12.5 11.3 11.6 94 0.5 W 9 9 5 5 1017.4 1017.4 0.0
21/02:30am 12.9 12.4 12.0 94 0.5 SW 6 7 3 4 1017.3 - 0.0
21/02:00am 12.3 11.5 11.0 92 0.7 SSW 6 7 3 4 1017.5 1017.5 0.0
21/01:30am 13.9 14.0 12.8 93 0.6 W 4 7 2 4 1017.6 - 0.0
21/01:00am 14.1 13.9 13.1 94 0.5 W 6 7 3 4 1017.6 1017.6 0.0
21/12:30am 14.4 14.1 13.4 94 0.6 WSW 7 9 4 5 1017.3 - 0.0
21/12:00am 14.3 14.6 13.3 94 0.6 W 4 7 2 4 1017.4 1017.4 0.0
 
Date/Time
EST
Temp
°C
App
Temp
°C
Dew
Point
Rel
Hum
%
Delta-T
°C
Wind Press
QNH
hPa
Press
MSL
hPa
Rain
since 9 am
mm
Dir
 
Spd
km/h
Gust
km/h
Spd
kts
Gust
kts
20/11:30pm 14.2 14.0 13.1 93 0.6 W 6 7 3 4 1017.5 - 0.0
20/11:00pm 14.3 14.1 13.0 92 0.7 WSW 6 7 3 4 1017.4 1017.4 0.0
20/10:30pm 15.2 15.2 14.1 93 0.6 W 7 9 4 5 1017.4 - 0.0
20/10:00pm 15.2 15.3 13.9 92 0.7 W 6 7 3 4 1017.4 1017.4 0.0

Other Formats:

Comma delimited format used in spreadsheet applications
http://www.bom.gov.au/fwo/IDN60801/IDN60801.94785.axf

JavaScript Object Notation format (JSON) in row-major order
http://www.bom.gov.au/fwo/IDN60801/IDN60801.94785.json